Latest Weather Observations for Warwick

IDQ60901

Issued at 5:25 pm EST Monday 1 September 2014 (issued every 10 minutes, with the page automatically refreshed every 10 minutes)

About weather observations | Map of Brisbane area stations | Latest observations for Brisbane area | Other Formats
Station Details ID: 041525 Name: WARWICK Lat: -28.21 Lon: 152.10 Height: 475.4 m
Data from the previous 72 hours. | See also: Recent months at Warwick
Date/Time
EST
Tmp

°C
App
Tmp
°C
Dew
Point
°C
Rel
Hum
%
Delta-T

°C
Wind Press
QNH
hPa
Press
MSL
hPa
Rain
since
9 am
mm
Dir
 
Spd
km/h
Gust
km/h
Spd
kts
Gust
kts
01/05:00pm 21.2 17.9 4.6 33 8.3 W 11 15 6 8 1015.2 1014.2 0.0
01/04:30pm 22.2 18.9 4.5 31 8.9 NW 11 15 6 8 1015.1 1014.1 0.0
01/04:00pm 21.7 18.2 3.3 30 9.0 NW 11 19 6 10 1014.9 1014.0 0.0
01/03:30pm 22.4 18.3 4.2 30 9.1 W 15 22 8 12 1015.1 1014.1 0.0
01/03:00pm 22.4 18.7 4.5 31 9.0 W 13 22 7 12 1014.8 1013.9 0.0
01/02:30pm 22.0 17.6 2.9 28 9.3 NW 15 24 8 13 1015.2 1014.2 0.0
01/02:00pm 22.3 19.0 4.3 31 9.0 NNW 11 20 6 11 1015.7 1014.7 0.0
01/01:30pm 22.0 17.6 4.7 32 8.7 WNW 17 28 9 15 1016.1 1015.2 0.0
01/01:00pm 22.0 17.5 4.4 31 8.8 W 17 26 9 14 1016.6 1015.7 0.0
01/12:30pm 21.7 16.8 4.2 31 8.7 NNW 19 28 10 15 1017.4 1016.4 0.0
01/12:00pm 21.5 18.3 5.3 34 8.2 NW 11 19 6 10 1017.8 1016.8 0.0
01/11:30am 20.7 17.0 4.6 34 8.0 NNW 13 24 7 13 1018.0 1017.1 0.0
01/11:00am 20.5 18.1 8.5 46 6.4 W 11 20 6 11 1018.4 1017.5 0.0
01/10:30am 19.5 16.7 8.4 48 5.9 W 13 19 7 10 1018.8 1017.9 0.0
01/10:00am 18.7 15.8 8.0 49 5.6 WNW 13 19 7 10 1019.6 1018.6 0.0
01/09:30am 17.9 16.5 11.0 64 3.8 WNW 9 15 5 8 1019.9 1019.8 0.0
01/09:00am 15.0 15.5 11.7 80 1.8 CALM 0 7 0 4 1020.0 1019.9 0.0
01/08:30am 13.2 13.7 11.5 89 0.9 CALM 0 0 0 0 1020.0 1019.9 0.0
01/08:00am 11.3 11.5 10.7 96 0.3 CALM 0 0 0 0 1020.0 1019.9 0.0
01/07:30am 10.2 10.3 10.0 99 0.1 CALM 0 0 0 0 1019.9 1019.8 0.0
01/07:00am 9.5 9.4 9.3 99 0.1 CALM 0 0 0 0 1019.3 1019.2 0.0
01/06:30am 8.5 8.1 8.3 99 0.1 CALM 0 0 0 0 1019.0 1018.9 0.0
01/06:00am 7.8 7.3 7.8 100 0.0 NE 0 0 0 0 1018.7 1018.6 0.0
01/05:30am 8.7 8.4 8.7 100 0.0 CALM 0 0 0 0 1018.5 1018.4 0.0
01/05:00am 8.8 8.5 8.6 99 0.1 CALM 0 0 0 0 1018.4 1018.3 0.0
01/04:30am 9.0 7.9 8.6 97 0.2 NNE 4 7 2 4 1018.1 1018.0 0.0
01/04:00am 10.2 10.1 9.4 95 0.4 CALM 0 0 0 0 1018.2 1018.1 0.0
01/03:30am 9.7 9.6 9.3 97 0.2 CALM 0 0 0 0 1018.3 1018.2 0.0
01/03:00am 10.6 10.7 10.0 96 0.3 CALM 0 0 0 0 1018.2 1018.1 0.0
01/02:30am 11.4 11.7 10.8 96 0.3 CALM 0 0 0 0 1018.5 1018.4 0.0
01/02:00am 11.7 12.0 10.9 95 0.4 CALM 0 0 0 0 1018.7 1018.6 0.0
01/01:30am 12.0 12.3 10.9 93 0.6 CALM 0 0 0 0 1018.7 1018.6 0.0
01/01:00am 13.3 13.8 11.6 89 0.9 CALM 0 0 0 0 1018.7 1018.6 0.0
01/12:30am 13.7 13.9 11.7 88 1.1 S 2 6 1 3 1018.7 1018.6 0.0
01/12:00am 13.8 14.3 11.6 86 1.2 SSW 0 0 0 0 1018.8 1018.7 0.0
 
Date/Time
EST
Tmp

°C
App
Tmp
°C
Dew
Point
°C
Rel
Hum
%
Delta-T

°C
Wind Press
QNH
hPa
Press
MSL
hPa
Rain
since
9 am
mm
Dir
 
Spd
km/h
Gust
km/h
Spd
kts
Gust
kts
31/11:30pm 14.3 13.4 11.2 81 1.7 SSW 7 9 4 5 1018.7 1018.6 0.0
31/11:00pm 14.9 14.0 11.2 78 2.0 SSE 7 13 4 7 1018.7 1018.6 0.0
31/10:30pm 15.0 15.4 11.1 77 2.1 CALM 0 0 0 0 1018.6 1018.5 0.0
31/10:00pm 15.0 14.2 9.5 69 2.9 S 4 9 2 5 1018.6 1018.5 0.0
31/09:30pm 15.4 15.3 9.5 68 3.1 CALM 0 0 0 0 1018.4 1018.3 0.0
31/09:00pm 16.3 16.1 9.1 62 3.8 CALM 0 0 0 0 1018.0 1017.9 0.0
31/08:30pm 16.9 13.6 9.4 61 4.0 NNE 17 20 9 11 1018.2 1018.1 0.0
31/08:00pm 17.0 16.3 7.0 51 5.1 CALM 0 6 0 3 1018.0 1017.9 0.0
31/07:30pm 18.6 16.6 6.4 45 6.2 NW 6 9 3 5 1017.7 1017.5 0.0
31/07:00pm 19.0 15.9 5.4 41 6.8 NW 11 15 6 8 1017.1 1017.0 0.0
31/06:30pm 19.0 16.3 5.4 41 6.8 NW 9 13 5 7 1016.8 1016.7 0.0
31/06:00pm 19.1 16.9 6.1 42 6.6 NW 7 13 4 7 1016.5 1016.4 0.0
31/05:30pm 19.7 17.1 6.2 41 6.9 WNW 9 15 5 8 1016.3 1016.2 0.0
31/05:00pm 21.7 19.6 6.8 38 7.8 W 7 11 4 6 1016.2 1016.1 0.0
31/04:30pm 21.7 19.0 5.4 34 8.3 W 9 19 5 10 1015.9 1015.7 0.0
31/04:00pm 22.1 19.2 4.9 32 8.7 W 9 17 5 9 1015.7 1015.5 0.0
31/03:30pm 21.9 19.1 5.2 33 8.5 W 9 19 5 10 1015.6 1015.4 0.0
31/03:00pm 22.7 21.1 6.4 35 8.5 WSW 4 9 2 5 1015.7 1015.5 0.0
31/02:30pm 22.1 21.6 7.9 40 7.6 CALM 0 2 0 1 1015.8 1015.6 0.0
31/02:00pm 21.6 19.0 6.1 36 8.0 S 9 13 5 7 1016.0 1015.8 0.0
31/01:30pm 20.2 18.5 7.7 44 6.6 W 6 9 3 5 1016.4 1016.3 0.0
31/01:00pm 20.4 18.4 7.2 42 6.9 WNW 7 13 4 7 1016.8 1016.7 0.0
31/12:30pm 21.1 18.6 6.6 39 7.5 NW 9 19 5 10 1017.3 1017.1 0.0
31/12:00pm 19.5 17.0 6.7 43 6.6 NW 9 15 5 8 1017.8 1017.6 0.0
31/11:30am 20.5 17.7 7.1 42 7.0 W 11 20 6 11 1018.3 1018.2 0.0
31/11:00am 19.7 17.7 8.6 48 5.9 SW 9 17 5 9 1018.6 1018.5 0.0
31/10:30am 19.0 18.0 8.9 52 5.4 WSW 4 7 2 4 1019.1 1019.0 0.0
31/10:00am 18.3 17.1 9.6 57 4.7 SSE 6 13 3 7 1019.5 1019.3 0.0
31/09:30am 16.8 15.6 9.7 63 3.8 SE 6 11 3 6 1019.7 1019.5 0.0
31/09:00am 15.2 14.3 9.3 68 3.1 S 4 9 2 5 1019.7 1019.5 0.0
31/08:30am 13.4 13.3 9.6 78 2.0 CALM 0 0 0 0 1019.8 1019.6 0.0
31/08:00am 12.6 12.5 9.3 80 1.7 CALM 0 0 0 0 1019.9 1019.8 0.0
31/07:30am 11.4 11.2 9.1 86 1.2 CALM 0 0 0 0 1019.7 1019.5 0.0
31/07:00am 10.5 10.4 9.3 92 0.6 CALM 0 0 0 0 1019.6 1019.4 0.0
31/06:30am 7.0 6.2 6.4 96 0.3 CALM 0 0 0 0 1019.3 1019.2 0.0
31/06:00am 7.2 6.4 6.6 96 0.3 CALM 0 0 0 0 1018.9 1018.8 0.0
31/05:30am 7.4 6.7 7.0 97 0.2 CALM 0 0 0 0 1018.7 1018.6 0.0
31/05:00am 6.7 5.9 6.5 99 0.1 CALM 0 0 0 0 1018.5 1018.4 0.0
31/04:30am 6.8 5.9 6.2 96 0.3 CALM 0 0 0 0 1018.4 1018.3 0.0
31/04:00am 8.5 8.1 8.1 97 0.2 CALM 0 0 0 0 1018.3 1018.2 0.0
31/03:30am 7.2 6.5 6.8 97 0.2 CALM 0 0 0 0 1018.2 1018.1 0.0
31/03:00am 9.4 9.0 8.2 92 0.6 CALM 0 0 0 0 1018.3 1018.2 0.0
31/02:30am 8.7 8.2 7.7 93 0.5 CALM 0 0 0 0 1018.4 1018.3 0.0
31/02:00am 8.1 7.5 7.5 96 0.3 CALM 0 0 0 0 1018.5 1018.4 0.0
31/01:30am 8.7 8.3 8.1 96 0.3 CALM 0 0 0 0 1018.6 1018.5 0.0
31/01:00am 8.5 8.0 7.9 96 0.3 CALM 0 0 0 0 1018.6 1018.5 0.0
31/12:30am 8.8 8.2 7.4 91 0.7 CALM 0 0 0 0 1018.7 1018.6 0.0
31/12:00am 10.2 9.9 8.6 90 0.8 CALM 0 0 0 0 1018.8 1018.7 0.0
 
Date/Time
EST
Tmp

°C
App
Tmp
°C
Dew
Point
°C
Rel
Hum
%
Delta-T

°C
Wind Press
QNH
hPa
Press
MSL
hPa
Rain
since
9 am
mm
Dir
 
Spd
km/h
Gust
km/h
Spd
kts
Gust
kts
30/11:30pm 9.4 8.9 8.0 91 0.7 CALM 0 0 0 0 1018.8 1018.7 0.0
30/11:00pm 10.9 10.8 9.5 91 0.7 CALM 0 0 0 0 1018.7 1018.6 0.0
30/10:30pm 10.8 10.5 8.8 87 1.0 CALM 0 0 0 0 1018.8 1018.7 0.0
30/10:00pm 12.4 12.2 9.1 80 1.7 CALM 0 0 0 0 1018.8 1018.7 0.0
30/09:30pm 12.9 13.0 10.3 84 1.4 CALM 0 0 0 0 1018.8 1018.7 0.0
30/09:00pm 12.6 12.7 10.1 85 1.3 CALM 0 0 0 0 1018.8 1018.7 0.0
30/08:30pm 13.2 13.1 9.6 79 1.9 CALM 0 7 0 4 1018.8 1018.7 0.0
30/08:00pm 13.2 13.1 9.4 78 2.0 CALM 0 0 0 0 1018.5 1018.4 0.0
30/07:30pm 15.3 15.2 9.4 68 3.1 CALM 0 0 0 0 1018.4 1018.3 0.0
30/07:00pm 15.2 15.1 9.5 69 3.0 CALM 0 4 0 2 1018.2 1018.1 0.0
30/06:30pm 16.7 16.5 8.9 60 4.1 CALM 0 0 0 0 1017.8 1017.6 0.0
30/06:00pm 17.5 17.4 9.3 58 4.4 CALM 0 0 0 0 1017.6 1017.4 0.0
30/05:30pm 18.5 17.5 7.5 48 5.7 SSE 2 7 1 4 1017.5 1017.3 0.0
30/05:00pm 19.1 16.6 6.6 44 6.4 S 9 11 5 6 1017.5 1017.3 0.0
30/04:30pm 19.4 16.8 6.0 41 6.8 SSW 9 13 5 7 1017.1 1017.0 0.0
30/04:00pm 19.7 17.5 6.2 41 6.9 S 7 13 4 7 1016.9 1016.8 0.0
30/03:30pm 19.1 16.3 6.9 45 6.3 SW 11 15 6 8 1017.0 1016.9 0.0
30/03:00pm 19.2 15.7 7.0 45 6.3 SW 15 20 8 11 1017.0 1016.9 0.0
30/02:30pm 19.4 16.2 6.8 44 6.5 SW 13 19 7 10 1017.1 1017.0 0.0
30/02:00pm 19.8 17.0 6.8 42 6.7 S 11 15 6 8 1017.3 1017.1 0.0
30/01:30pm 20.6 18.7 7.5 42 6.9 S 7 20 4 11 1017.4 1017.2 0.0
30/01:00pm 19.8 17.4 7.1 43 6.6 ESE 9 19 5 10 1017.8 1017.6 0.0
30/12:30pm 18.8 15.9 6.4 44 6.3 S 11 20 6 11 1018.5 1018.4 0.0
30/12:00pm 19.2 16.0 6.7 44 6.4 S 13 28 7 15 1018.9 1018.8 0.0
30/11:30am 18.2 15.5 5.6 43 6.3 SSW 9 20 5 11 1019.5 1019.3 0.0
30/11:00am 17.0 14.2 5.2 45 5.8 S 9 17 5 9 1019.9 1019.8 0.0
30/10:30am 15.4 12.9 3.7 45 5.5 S 6 9 3 5 1020.3 1020.2 0.0
30/10:00am 14.0 12.3 4.2 51 4.6 SSW 2 7 1 4 1020.6 1020.5 0.0
30/09:30am 12.3 10.1 3.5 55 4.0 SSW 4 7 2 4 1020.8 1020.7 0.0
30/09:00am 10.3 9.2 4.9 69 2.5 CALM 0 4 0 2 1020.9 1020.8 0.0
30/08:30am 8.4 7.3 4.9 78 1.6 CALM 0 0 0 0 1021.1 1021.0 0.0
30/08:00am 6.2 5.0 4.4 88 0.8 CALM 0 0 0 0 1021.2 1021.1 0.0
30/07:30am 3.2 1.6 2.5 95 0.3 CALM 0 0 0 0 1020.9 1020.8 0.0
30/07:00am 1.3 -1.7 1.0 98 0.1 S 6 11 3 6 1020.8 1020.7 0.0
30/06:30am 0.8 -1.2 0.0 94 0.3 CALM 0 0 0 0 1020.5 1020.4 0.0
30/06:00am 1.6 -0.3 0.6 93 0.4 CALM 0 6 0 3 1020.2 1020.1 0.0
30/05:30am 1.8 -1.1 1.3 96 0.2 N 6 7 3 4 1019.9 1019.8 0.0
30/05:00am 2.1 0.4 1.6 96 0.2 CALM 0 0 0 0 1019.7 1019.5 0.0
30/04:30am 3.5 2.0 2.8 95 0.3 CALM 0 0 0 0 1019.5 1019.3 0.0
30/04:00am 2.9 1.3 2.4 96 0.2 CALM 0 0 0 0 1019.6 1019.4 0.0
30/03:30am 3.5 1.9 2.5 93 0.4 CALM 0 0 0 0 1019.5 1019.3 0.0
30/03:00am 3.1 1.6 2.9 99 0.1 CALM 0 0 0 0 1019.6 1019.4 0.0
30/02:30am 3.0 1.3 2.0 93 0.4 CALM 0 0 0 0 1019.8 1019.6 0.0
30/02:00am 4.7 3.3 3.3 91 0.6 CALM 0 0 0 0 1019.9 1019.8 0.0
30/01:30am 5.9 3.3 3.3 83 1.1 NE 6 7 3 4 1020.0 1019.9 0.0
30/01:00am 5.9 4.0 3.1 82 1.2 NNE 2 7 1 4 1020.3 1020.2 0.0
30/12:30am 6.1 4.6 3.1 81 1.3 CALM 0 0 0 0 1020.4 1020.3 0.0
30/12:00am 5.8 4.4 3.7 86 0.9 CALM 0 0 0 0 1020.4 1020.3 0.0
 
Date/Time
EST
Tmp

°C
App
Tmp
°C
Dew
Point
°C
Rel
Hum
%
Delta-T

°C
Wind Press
QNH
hPa
Press
MSL
hPa
Rain
since
9 am
mm
Dir
 
Spd
km/h
Gust
km/h
Spd
kts
Gust
kts
29/11:30pm 6.9 5.4 3.2 77 1.6 CALM 0 0 0 0 1020.4 1020.3 0.0
29/11:00pm 6.6 5.3 4.3 85 1.0 CALM 0 0 0 0 1020.6 1020.5 0.0
29/10:30pm 6.5 3.6 4.5 87 0.9 E 9 9 5 5 1020.6 1020.5 0.0
29/10:00pm 7.3 4.7 4.1 80 1.4 ENE 7 11 4 6 1020.7 1020.6 0.0
29/09:30pm 8.1 6.2 3.0 70 2.2 NNE 2 6 1 3 1020.8 1020.7 0.0
29/09:00pm 8.2 5.6 3.2 71 2.2 ENE 6 9 3 5 1020.9 1020.8 0.0
29/08:30pm 10.2 8.8 3.5 63 3.0 CALM 0 0 0 0 1020.8 1020.7 0.0
29/08:00pm 11.1 8.7 4.1 62 3.2 W 6 9 3 5 1020.8 1020.7 0.0
29/07:30pm 12.0 9.5 3.7 57 3.8 WSW 6 9 3 5 1020.8 1020.7 0.0
29/07:00pm 13.8 10.0 1.9 44 5.3 W 11 15 6 8 1020.3 1020.2 0.0
29/06:30pm 14.4 10.3 2.5 44 5.4 W 13 15 7 8 1020.1 1020.0 0.0
29/06:00pm 15.3 11.7 2.7 42 5.8 WNW 11 15 6 8 1019.9 1019.8 0.0
29/05:30pm 15.7 12.6 3.6 44 5.7 W 9 13 5 7 1019.6 1019.4 0.0

Latest Capital City Observations: Canberra | Sydney | Melbourne | Brisbane | Adelaide | Perth | Hobart | Darwin

Other Formats:

Comma delimited format used in spreadsheet applications
http://www.bom.gov.au/fwo/IDQ60901/IDQ60901.94555.axf

JavaScript Object Notation format (JSON) in row-major order
http://www.bom.gov.au/fwo/IDQ60901/IDQ60901.94555.json